Time;durP1;ratioP1;P1;durP2;ratioP2;P2;SDS_P1;SDS_P2;PMS_P1;PMS_P2;Temp;Humidity;BMP_temperature;BMP_pressure;BME280_temperature;BME280_humidity;BME280_pressure;Samples;Min_cycle;Max_cycle;Signal;HPM_P1;HPM_P2
2021/11/20 00:00:13;;;;;;;10.27;2.97;;;11.60;99.90;;;;;;5021909;28;20203;-53
2021/11/20 00:02:41;;;;;;;11.20;2.50;;;11.60;99.90;;;;;;5010576;28;20227;-52
2021/11/20 00:05:11;;;;;;;13.53;3.57;;;11.60;99.90;;;;;;5017997;28;20562;-51
2021/11/20 00:07:38;;;;;;;12.67;3.23;;;11.60;99.90;;;;;;5014981;28;20631;-51
2021/11/20 00:10:06;;;;;;;13.57;3.83;;;11.60;99.90;;;;;;5020967;28;20195;-53
2021/11/20 00:12:33;;;;;;;7.23;2.80;;;11.60;99.90;;;;;;5019334;28;20649;-53
2021/11/20 00:15:00;;;;;;;10.70;3.37;;;11.60;99.90;;;;;;5021365;28;20196;-51
2021/11/20 00:17:28;;;;;;;8.20;3.00;;;11.60;99.90;;;;;;5015157;28;20228;-52
2021/11/20 00:19:56;;;;;;;11.27;2.83;;;11.60;99.90;;;;;;5007001;28;20207;-51
2021/11/20 00:22:28;;;;;;;13.60;3.00;;;11.60;99.90;;;;;;5015811;28;20688;-48
2021/11/20 00:24:59;;;;;;;11.27;2.80;;;11.50;99.90;;;;;;5021132;28;20199;-49
2021/11/20 00:27:33;;;;;;;16.47;2.20;;;11.50;99.90;;;;;;5023483;28;20223;-52
2021/11/20 00:30:02;;;;;;;8.00;2.43;;;11.50;99.90;;;;;;5015646;28;20835;-50
2021/11/20 00:32:32;;;;;;;10.57;3.00;;;11.50;99.90;;;;;;5021898;28;20204;-51
2021/11/20 00:35:06;;;;;;;10.33;2.77;;;11.50;99.90;;;;;;5006332;28;20200;-50
2021/11/20 00:37:33;;;;;;;11.37;3.03;;;11.50;99.90;;;;;;5012013;28;20231;-52
2021/11/20 00:40:01;;;;;;;7.87;2.80;;;11.50;99.90;;;;;;5009765;28;20231;-54
2021/11/20 00:42:27;;;;;;;12.17;2.27;;;11.50;99.90;;;;;;5015595;28;20224;-53
2021/11/20 00:44:54;;;;;;;10.47;2.57;;;11.50;99.90;;;;;;5013861;28;20417;-55
2021/11/20 00:47:21;;;;;;;10.27;2.57;;;11.50;99.90;;;;;;5016742;28;20234;-50
2021/11/20 00:49:50;;;;;;;8.80;2.23;;;11.50;99.90;;;;;;4999622;28;21904;-53
2021/11/20 00:52:18;;;;;;;8.93;2.63;;;11.40;99.90;;;;;;5022613;28;20657;-48
2021/11/20 00:54:45;;;;;;;10.83;2.17;;;11.50;99.90;;;;;;5015409;28;20200;-52
2021/11/20 00:57:12;;;;;;;8.83;2.20;;;11.50;99.90;;;;;;5017985;28;20211;-53
2021/11/20 00:59:39;;;;;;;8.37;2.27;;;11.40;99.90;;;;;;5017859;28;20262;-52
2021/11/20 01:02:06;;;;;;;10.20;2.33;;;11.50;99.90;;;;;;5036546;28;20230;-48
2021/11/20 01:04:34;;;;;;;4.90;1.80;;;11.50;99.90;;;;;;5016723;28;20207;-52
2021/11/20 01:07:02;;;;;;;10.37;1.80;;;11.50;99.90;;;;;;5003941;28;20208;-49
2021/11/20 01:09:33;;;;;;;8.43;2.40;;;11.50;99.90;;;;;;5019729;28;20204;-53
2021/11/20 01:12:08;;;;;;;9.87;1.97;;;11.40;99.90;;;;;;5017756;28;20191;-49
2021/11/20 01:14:35;;;;;;;13.00;3.37;;;11.50;99.90;;;;;;5020393;28;20203;-52
2021/11/20 01:17:06;;;;;;;9.40;2.83;;;11.40;99.90;;;;;;5019787;28;20226;-50
2021/11/20 01:19:34;;;;;;;13.27;2.67;;;11.40;99.90;;;;;;5019831;28;20570;-49
2021/11/20 01:22:10;;;;;;;12.50;2.40;;;11.50;99.90;;;;;;5006005;28;20261;-51
2021/11/20 01:24:57;;;;;;;9.37;2.50;;;11.50;99.90;;;;;;5020140;28;20831;-49
2021/11/20 01:27:38;;;;;;;11.67;2.73;;;11.40;99.90;;;;;;5019009;28;20285;-52
2021/11/20 01:30:25;;;;;;;6.40;2.20;;;11.40;99.90;;;;;;5013990;28;20684;-49
2021/11/20 01:32:53;;;;;;;11.30;2.77;;;11.40;99.90;;;;;;5016586;28;20235;-49
2021/11/20 01:35:21;;;;;;;10.00;3.00;;;11.40;99.90;;;;;;5020209;28;20222;-50
2021/11/20 01:37:58;;;;;;;16.90;3.80;;;11.40;99.90;;;;;;5000256;28;20250;-47
2021/11/20 01:40:29;;;;;;;14.23;3.87;;;11.40;99.90;;;;;;5022033;28;20196;-53
2021/11/20 01:42:57;;;;;;;8.20;3.20;;;11.40;99.90;;;;;;5018694;28;20270;-50
2021/11/20 01:45:28;;;;;;;9.47;3.23;;;11.40;99.90;;;;;;5016436;28;20212;-52
2021/11/20 01:48:02;;;;;;;10.40;3.27;;;11.40;99.90;;;;;;5015215;28;20217;-51
2021/11/20 01:50:39;;;;;;;9.13;3.67;;;11.40;99.90;;;;;;5019685;28;20545;-52
2021/11/20 01:53:11;;;;;;;7.60;2.97;;;11.40;99.90;;;;;;5006198;28;20204;-52
2021/11/20 01:55:43;;;;;;;8.63;3.57;;;11.40;99.90;;;;;;5018769;28;20566;-53
2021/11/20 01:58:31;;;;;;;7.03;3.33;;;11.30;99.90;;;;;;5022005;28;20265;-49
2021/11/20 02:01:07;;;;;;;7.30;3.43;;;11.30;99.90;;;;;;5023595;28;20875;-48
2021/11/20 02:03:41;;;;;;;12.90;4.00;;;11.30;99.90;;;;;;5023733;28;20302;-52
2021/11/20 02:06:20;;;;;;;13.93;4.00;;;11.30;99.90;;;;;;5025399;28;20224;-52
2021/11/20 02:09:01;;;;;;;11.43;3.63;;;11.30;99.90;;;;;;5003285;28;20207;-52
2021/11/20 02:11:41;;;;;;;12.80;4.27;;;11.30;99.90;;;;;;5018565;28;20663;-53
2021/11/20 02:14:10;;;;;;;11.63;4.13;;;11.30;99.90;;;;;;5016002;28;20211;-48
2021/11/20 02:16:41;;;;;;;11.77;4.27;;;11.30;99.90;;;;;;5018935;28;20220;-53
2021/11/20 02:19:13;;;;;;;10.90;3.90;;;11.30;99.90;;;;;;5024704;28;20288;-50
2021/11/20 02:21:45;;;;;;;12.27;4.27;;;11.30;99.90;;;;;;5018717;28;20234;-52
2021/11/20 02:24:12;;;;;;;8.93;4.27;;;11.30;99.90;;;;;;5010484;28;20215;-49
2021/11/20 02:27:03;;;;;;;11.57;3.87;;;11.30;99.90;;;;;;5020866;28;20223;-50
2021/11/20 02:29:29;;;;;;;11.43;4.67;;;11.30;99.90;;;;;;5019979;28;20210;-50
2021/11/20 02:32:10;;;;;;;12.03;4.13;;;11.30;99.90;;;;;;5024615;28;20212;-50
2021/11/20 02:34:50;;;;;;;11.57;3.80;;;11.30;99.90;;;;;;5021071;28;20208;-47
2021/11/20 02:37:18;;;;;;;13.70;4.03;;;11.30;99.90;;;;;;5024908;28;20303;-50
2021/11/20 02:39:46;;;;;;;14.53;3.97;;;11.30;99.90;;;;;;5006961;28;20216;-53
2021/11/20 02:42:15;;;;;;;10.13;3.60;;;11.30;99.90;;;;;;5025088;28;20211;-49
2021/11/20 02:44:46;;;;;;;13.87;3.53;;;11.30;99.90;;;;;;5014333;28;20204;-53
2021/11/20 02:47:23;;;;;;;10.70;3.57;;;11.30;99.90;;;;;;5035031;28;20224;-55
2021/11/20 02:49:51;;;;;;;10.53;3.83;;;11.30;99.90;;;;;;5019154;28;20191;-52
2021/11/20 02:52:21;;;;;;;11.23;4.00;;;11.30;99.90;;;;;;5019739;28;20224;-54
2021/11/20 02:54:51;;;;;;;13.60;4.13;;;11.30;99.90;;;;;;5020482;28;20347;-53
2021/11/20 02:57:22;;;;;;;12.33;4.03;;;11.20;99.90;;;;;;5026154;28;20232;-52
2021/11/20 02:59:51;;;;;;;17.43;4.37;;;11.30;99.90;;;;;;5020569;28;20298;-50
2021/11/20 03:02:23;;;;;;;10.23;4.33;;;11.30;99.90;;;;;;5024096;28;20956;-53
2021/11/20 03:04:51;;;;;;;7.83;3.57;;;11.30;99.90;;;;;;5017844;28;20342;-53
2021/11/20 03:07:18;;;;;;;9.83;4.23;;;11.30;99.90;;;;;;5022976;28;20326;-52
2021/11/20 03:09:46;;;;;;;9.93;4.20;;;11.30;99.90;;;;;;5020529;28;20195;-53
2021/11/20 03:12:21;;;;;;;11.07;4.53;;;11.30;99.90;;;;;;5001627;28;20211;-53
2021/11/20 03:14:55;;;;;;;8.97;4.20;;;11.30;99.90;;;;;;5022785;28;20566;-49
2021/11/20 03:17:30;;;;;;;11.27;4.67;;;11.30;99.90;;;;;;5014134;28;20228;-52
2021/11/20 03:19:59;;;;;;;17.60;4.73;;;11.30;99.90;;;;;;5023617;28;20291;-53
2021/11/20 03:22:30;;;;;;;13.40;3.73;;;11.30;99.90;;;;;;5023204;28;20220;-53
2021/11/20 03:24:56;;;;;;;10.53;4.17;;;11.30;99.90;;;;;;5014647;28;20231;-53
2021/11/20 03:27:24;;;;;;;12.60;3.87;;;11.30;99.90;;;;;;5011137;28;20696;-52
2021/11/20 03:29:52;;;;;;;11.23;4.30;;;11.30;99.90;;;;;;5015402;28;20354;-53
2021/11/20 03:32:19;;;;;;;15.10;3.67;;;11.30;99.90;;;;;;5010144;28;20212;-52
2021/11/20 03:34:48;;;;;;;17.37;4.10;;;11.30;99.90;;;;;;5015285;28;20282;-49
2021/11/20 03:37:22;;;;;;;14.60;3.70;;;11.30;99.90;;;;;;5017804;28;20227;-53
2021/11/20 03:39:50;;;;;;;12.40;4.53;;;11.30;99.90;;;;;;5004010;28;20201;-49
2021/11/20 03:42:17;;;;;;;11.87;4.30;;;11.30;99.90;;;;;;5023731;28;20208;-49
2021/11/20 03:44:45;;;;;;;12.40;5.00;;;11.30;99.90;;;;;;5005712;28;20203;-48
2021/11/20 03:47:11;;;;;;;11.33;4.43;;;11.30;99.90;;;;;;5023485;28;20220;-47
2021/11/20 03:49:42;;;;;;;18.07;5.47;;;11.30;99.90;;;;;;5017608;28;20188;-52
2021/11/20 03:52:10;;;;;;;11.63;4.80;;;11.30;99.90;;;;;;5023096;28;20207;-52
2021/11/20 03:54:37;;;;;;;15.07;4.73;;;11.40;99.90;;;;;;5019768;28;20209;-51
2021/11/20 03:57:05;;;;;;;14.97;5.23;;;11.30;99.90;;;;;;5012074;28;20279;-48
2021/11/20 03:59:33;;;;;;;13.93;5.63;;;11.30;99.90;;;;;;5008947;28;20196;-54
2021/11/20 04:02:00;;;;;;;12.40;5.50;;;11.30;99.90;;;;;;5020874;28;20204;-50
2021/11/20 04:04:30;;;;;;;20.47;6.60;;;11.40;99.90;;;;;;5018967;28;20235;-54
2021/11/20 04:06:57;;;;;;;19.27;6.57;;;11.30;99.90;;;;;;5022047;28;20246;-51
2021/11/20 04:09:25;;;;;;;16.63;6.77;;;11.40;99.90;;;;;;5022132;28;20232;-52
2021/11/20 04:11:58;;;;;;;16.40;6.60;;;11.40;99.90;;;;;;5022047;28;20201;-54
2021/11/20 04:14:25;;;;;;;19.43;7.40;;;11.40;99.90;;;;;;5021081;28;20199;-49
2021/11/20 04:16:53;;;;;;;22.07;7.00;;;11.40;99.90;;;;;;4998179;28;20226;-50
2021/11/20 04:19:21;;;;;;;17.93;6.20;;;11.40;99.90;;;;;;5018482;28;20668;-54
2021/11/20 04:21:52;;;;;;;19.73;6.23;;;11.40;99.90;;;;;;5020043;28;20923;-48
2021/11/20 04:24:20;;;;;;;16.87;5.97;;;11.30;99.90;;;;;;5019384;28;20235;-54
2021/11/20 04:27:14;;;;;;;17.60;5.60;;;11.40;99.90;;;;;;5023220;28;20223;-49
2021/11/20 04:30:14;;;;;;;16.37;5.67;;;11.40;99.90;;;;;;5015495;28;20298;-51
2021/11/20 04:32:42;;;;;;;14.90;5.80;;;11.30;99.90;;;;;;5005288;28;20953;-49
2021/11/20 04:35:10;;;;;;;18.63;5.23;;;11.30;99.90;;;;;;5022127;28;20208;-52
2021/11/20 04:37:37;;;;;;;11.07;5.60;;;11.30;99.90;;;;;;5012767;28;20220;-53
2021/11/20 04:40:06;;;;;;;14.47;5.70;;;11.30;99.90;;;;;;5024041;28;20215;-53
2021/11/20 04:42:34;;;;;;;11.47;4.90;;;11.30;99.90;;;;;;5014619;28;20253;-52
2021/11/20 04:45:02;;;;;;;17.67;5.00;;;11.30;99.90;;;;;;5022153;28;20292;-51
2021/11/20 04:47:28;;;;;;;10.40;5.00;;;11.30;99.90;;;;;;5019966;28;20315;-49
2021/11/20 04:49:55;;;;;;;10.83;4.63;;;11.30;99.90;;;;;;5017083;28;20247;-49
2021/11/20 04:52:22;;;;;;;21.97;4.90;;;11.30;99.90;;;;;;5020077;28;20200;-53
2021/11/20 04:54:48;;;;;;;14.50;5.27;;;11.30;99.90;;;;;;5019820;28;20230;-52
2021/11/20 04:57:15;;;;;;;14.10;5.90;;;11.30;99.90;;;;;;5019233;28;20730;-51
2021/11/20 04:59:43;;;;;;;16.43;6.07;;;11.30;99.90;;;;;;5019848;28;20200;-52
2021/11/20 05:02:10;;;;;;;22.57;6.97;;;11.30;99.90;;;;;;4998515;28;20218;-54
2021/11/20 05:04:39;;;;;;;15.20;7.30;;;11.30;99.90;;;;;;5019953;28;20239;-52
2021/11/20 05:07:06;;;;;;;20.00;7.67;;;11.30;99.90;;;;;;5012123;28;20230;-51
2021/11/20 05:09:33;;;;;;;16.80;7.87;;;11.30;99.90;;;;;;5030174;28;20231;-50
2021/11/20 05:12:01;;;;;;;19.80;8.97;;;11.30;99.90;;;;;;5036990;28;20750;-48
2021/11/20 05:14:29;;;;;;;18.93;9.77;;;11.30;99.90;;;;;;5018284;28;20207;-53
2021/11/20 05:16:57;;;;;;;18.30;9.50;;;11.30;99.90;;;;;;5018952;28;20228;-48
2021/11/20 05:19:24;;;;;;;19.47;8.93;;;11.30;99.90;;;;;;5006469;28;20566;-54
2021/11/20 05:21:51;;;;;;;21.27;9.27;;;11.30;99.90;;;;;;5020994;28;20231;-51
2021/11/20 05:24:21;;;;;;;23.00;9.47;;;11.40;99.90;;;;;;5012442;28;20223;-54
2021/11/20 05:26:51;;;;;;;20.27;9.30;;;11.40;99.90;;;;;;5019412;28;20391;-49
2021/11/20 05:29:24;;;;;;;19.07;8.77;;;11.30;99.90;;;;;;5020124;28;20291;-54
2021/11/20 05:31:57;;;;;;;21.67;10.57;;;11.30;99.90;;;;;;5016606;28;20203;-50
2021/11/20 05:34:24;;;;;;;21.30;9.73;;;11.30;99.90;;;;;;5003018;28;20835;-49
2021/11/20 05:36:50;;;;;;;20.93;8.87;;;11.30;99.90;;;;;;5018630;28;20224;-51
2021/11/20 05:39:21;;;;;;;16.80;8.83;;;11.30;99.90;;;;;;4999135;28;20211;-52
2021/11/20 05:41:48;;;;;;;21.73;9.13;;;11.30;99.90;;;;;;5020066;28;20409;-48
2021/11/20 05:44:15;;;;;;;19.67;8.73;;;11.30;99.90;;;;;;5015169;28;20224;-51
2021/11/20 05:46:58;;;;;;;19.63;9.13;;;11.30;99.90;;;;;;5020664;28;20230;-48
2021/11/20 05:49:27;;;;;;;20.47;9.73;;;11.30;99.90;;;;;;5004687;28;20676;-52
2021/11/20 05:51:54;;;;;;;15.20;8.67;;;11.30;99.90;;;;;;5022309;28;20196;-49
2021/11/20 05:54:21;;;;;;;15.20;8.47;;;11.30;99.90;;;;;;5014157;28;20293;-53
2021/11/20 05:56:54;;;;;;;21.63;9.53;;;11.30;99.90;;;;;;5018622;28;20319;-52
2021/11/20 05:59:20;;;;;;;16.20;8.77;;;11.30;99.90;;;;;;5015878;28;20289;-53
2021/11/20 06:01:47;;;;;;;21.63;9.27;;;11.30;99.90;;;;;;5019679;28;20247;-50
2021/11/20 06:04:15;;;;;;;18.43;9.07;;;11.30;99.90;;;;;;4998428;28;20281;-53
2021/11/20 06:06:43;;;;;;;15.77;8.07;;;11.30;99.90;;;;;;5010348;28;20216;-51
2021/11/20 06:09:11;;;;;;;14.93;8.43;;;11.30;99.90;;;;;;5013212;28;20207;-51
2021/11/20 06:11:38;;;;;;;15.00;7.73;;;11.30;99.90;;;;;;5001513;28;20200;-54
2021/11/20 06:14:06;;;;;;;15.80;8.73;;;11.30;99.90;;;;;;5018706;28;20200;-53
2021/11/20 06:16:36;;;;;;;19.23;9.27;;;11.30;99.90;;;;;;5009917;28;20223;-49
2021/11/20 06:19:03;;;;;;;16.77;7.50;;;11.30;99.90;;;;;;5016502;28;20217;-52
2021/11/20 06:21:30;;;;;;;19.53;8.27;;;11.30;99.90;;;;;;5015425;28;20192;-54
2021/11/20 06:23:58;;;;;;;14.63;7.77;;;11.30;99.90;;;;;;5014653;28;20234;-54
2021/11/20 06:26:26;;;;;;;17.77;8.37;;;11.30;99.90;;;;;;5014136;28;20865;-54
2021/11/20 06:28:53;;;;;;;20.03;8.13;;;11.30;99.90;;;;;;5010300;28;21001;-51
2021/11/20 06:31:23;;;;;;;11.30;7.50;;;11.30;99.90;;;;;;5005713;28;20204;-52
2021/11/20 06:34:20;;;;;;;16.30;7.80;;;11.30;99.90;;;;;;4996370;28;20212;-52
2021/11/20 06:36:53;;;;;;;11.10;7.43;;;11.30;99.90;;;;;;5018914;28;20226;-51
2021/11/20 06:39:32;;;;;;;16.03;7.83;;;11.30;99.90;;;;;;5004329;28;20205;-49
2021/11/20 06:42:03;;;;;;;12.03;7.50;;;11.30;99.90;;;;;;5016399;28;20244;-49
2021/11/20 06:44:29;;;;;;;11.50;6.73;;;11.30;99.90;;;;;;5011781;28;20231;-52
2021/11/20 06:46:57;;;;;;;13.73;7.87;;;11.30;99.90;;;;;;5022199;28;20231;-50
2021/11/20 06:49:25;;;;;;;13.13;7.07;;;11.30;99.90;;;;;;4995345;28;20234;-53
2021/11/20 06:51:56;;;;;;;15.23;7.50;;;11.30;99.90;;;;;;5020678;28;20590;-52
2021/11/20 06:54:43;;;;;;;13.53;7.87;;;11.30;99.90;;;;;;5022670;28;23093;-53
2021/11/20 06:57:51;;;;;;;15.20;7.63;;;11.30;99.90;;;;;;5006488;28;20223;-47
2021/11/20 07:00:33;;;;;;;16.37;7.50;;;11.30;99.90;;;;;;5025823;28;20245;-50
2021/11/20 07:03:12;;;;;;;13.27;7.77;;;11.20;99.90;;;;;;5013825;28;20566;-52
2021/11/20 07:05:43;;;;;;;14.80;8.67;;;11.20;99.90;;;;;;5021956;28;20980;-48
2021/11/20 07:08:10;;;;;;;16.90;9.07;;;11.20;99.90;;;;;;5016961;28;20240;-51
2021/11/20 07:10:39;;;;;;;15.23;9.13;;;11.30;99.90;;;;;;5024383;28;20192;-48
2021/11/20 07:13:06;;;;;;;15.77;8.17;;;11.30;99.90;;;;;;5014418;28;20204;-51
2021/11/20 07:15:34;;;;;;;14.63;7.63;;;11.30;99.90;;;;;;5013172;28;20211;-49
2021/11/20 07:18:01;;;;;;;14.77;7.47;;;11.20;99.90;;;;;;5019776;28;20258;-53
2021/11/20 07:20:47;;;;;;;15.00;8.57;;;11.20;99.90;;;;;;5015594;28;20211;-52
2021/11/20 07:23:36;;;;;;;17.53;8.73;;;11.30;99.90;;;;;;5018369;28;20219;-50
2021/11/20 07:26:06;;;;;;;16.53;8.37;;;11.30;99.90;;;;;;5021950;28;20206;-51
2021/11/20 07:28:34;;;;;;;18.33;8.90;;;11.30;99.90;;;;;;5017266;28;22928;-52
2021/11/20 07:31:01;;;;;;;11.47;8.43;;;11.30;99.90;;;;;;5017691;28;20299;-52
2021/11/20 07:33:32;;;;;;;12.30;8.77;;;11.30;99.90;;;;;;5021806;28;20192;-48
2021/11/20 07:36:00;;;;;;;18.33;9.13;;;11.30;99.90;;;;;;5002838;28;20383;-49
2021/11/20 07:38:31;;;;;;;15.23;9.30;;;11.30;99.90;;;;;;4999724;28;20220;-51
2021/11/20 07:40:57;;;;;;;17.53;9.20;;;11.30;99.90;;;;;;5015034;28;20207;-52
2021/11/20 07:43:25;;;;;;;15.60;10.10;;;11.30;99.90;;;;;;5017629;28;20216;-49
2021/11/20 07:46:13;;;;;;;13.27;9.87;;;11.30;99.90;;;;;;5019355;28;20338;-49
2021/11/20 07:48:40;;;;;;;21.87;10.77;;;11.20;99.90;;;;;;5019591;28;20199;-50
2021/11/20 07:51:12;;;;;;;15.67;9.97;;;11.30;99.90;;;;;;5014473;28;20208;-51
2021/11/20 07:53:46;;;;;;;19.90;11.23;;;11.30;99.90;;;;;;5004690;28;20359;-50
2021/11/20 07:56:17;;;;;;;15.77;9.97;;;11.30;99.90;;;;;;5021375;28;20204;-52
2021/11/20 07:58:50;;;;;;;14.43;10.00;;;11.30;99.90;;;;;;5009322;28;20212;-51
2021/11/20 08:01:17;;;;;;;15.30;10.20;;;11.30;99.90;;;;;;5023212;28;20200;-48
2021/11/20 08:03:45;;;;;;;17.47;9.77;;;11.30;99.90;;;;;;5011692;28;20290;-53
2021/11/20 08:06:36;;;;;;;18.23;11.83;;;11.30;99.90;;;;;;4996733;28;20231;-50
2021/11/20 08:09:22;;;;;;;15.43;10.47;;;11.30;99.90;;;;;;5021206;28;20223;-51
2021/11/20 08:11:58;;;;;;;16.57;9.73;;;11.30;99.90;;;;;;5013617;28;20356;-52
2021/11/20 08:14:29;;;;;;;17.50;11.17;;;11.30;99.90;;;;;;5013344;28;20200;-52
2021/11/20 08:17:05;;;;;;;14.50;9.07;;;11.30;99.90;;;;;;5021180;28;20225;-51
2021/11/20 08:19:51;;;;;;;14.30;10.03;;;11.30;99.90;;;;;;5015739;28;20239;-52
2021/11/20 08:22:39;;;;;;;19.90;11.43;;;11.30;99.90;;;;;;4998024;28;20967;-50
2021/11/20 08:25:09;;;;;;;16.17;10.13;;;11.30;99.90;;;;;;5013143;28;20217;-50
2021/11/20 08:27:37;;;;;;;19.27;11.20;;;11.30;99.90;;;;;;5016689;28;20223;-53
2021/11/20 08:30:17;;;;;;;23.23;10.77;;;11.30;99.90;;;;;;5016429;28;20200;-48
2021/11/20 08:32:51;;;;;;;18.13;9.20;;;11.30;99.90;;;;;;5010007;28;20216;-50
2021/11/20 08:35:37;;;;;;;16.00;10.07;;;11.30;99.90;;;;;;5009802;28;20238;-52
2021/11/20 08:38:19;;;;;;;16.80;10.13;;;11.30;99.90;;;;;;5018096;28;20333;-50
2021/11/20 08:40:50;;;;;;;20.60;9.97;;;11.30;99.90;;;;;;5015516;28;20250;-53
2021/11/20 08:43:18;;;;;;;15.57;10.30;;;11.30;99.90;;;;;;5016967;28;20196;-48
2021/11/20 08:45:51;;;;;;;22.07;10.03;;;11.30;99.90;;;;;;5007916;28;21332;-48
2021/11/20 08:48:19;;;;;;;15.77;10.00;;;11.30;99.90;;;;;;5019078;28;20200;-47
2021/11/20 08:50:50;;;;;;;15.97;9.17;;;11.30;99.90;;;;;;5014517;28;20200;-48
2021/11/20 08:53:17;;;;;;;14.67;10.00;;;11.40;99.90;;;;;;5013093;28;20200;-51
2021/11/20 08:55:45;;;;;;;22.77;10.77;;;11.40;99.90;;;;;;4998626;28;20212;-51
2021/11/20 08:58:24;;;;;;;16.47;9.00;;;11.40;99.90;;;;;;5011066;28;20789;-53
2021/11/20 09:00:56;;;;;;;13.97;9.70;;;11.40;99.90;;;;;;5006702;28;20258;-53
2021/11/20 09:03:37;;;;;;;15.67;8.67;;;11.40;99.90;;;;;;5019275;28;20211;-52
2021/11/20 09:06:14;;;;;;;12.70;8.43;;;11.40;99.90;;;;;;5013783;28;20214;-53
2021/11/20 09:08:50;;;;;;;19.47;7.93;;;11.50;99.90;;;;;;5015205;28;20212;-52
2021/11/20 09:11:26;;;;;;;17.30;7.90;;;11.50;99.90;;;;;;5008542;28;20204;-49
2021/11/20 09:13:58;;;;;;;11.43;7.43;;;11.50;99.90;;;;;;5007960;28;20196;-50
2021/11/20 09:16:30;;;;;;;14.37;7.87;;;11.60;99.90;;;;;;5002913;28;20235;-52
2021/11/20 09:18:59;;;;;;;15.83;7.63;;;11.60;99.90;;;;;;5011870;28;20778;-55
2021/11/20 09:21:29;;;;;;;8.87;6.97;;;11.60;99.90;;;;;;5020715;28;20589;-52
2021/11/20 09:24:08;;;;;;;12.27;6.50;;;11.60;99.90;;;;;;5017176;28;20200;-52
2021/11/20 09:26:43;;;;;;;11.27;7.00;;;11.60;99.90;;;;;;4999958;28;20223;-54
2021/11/20 09:29:13;;;;;;;10.63;6.70;;;11.60;99.90;;;;;;5019765;28;20203;-52
2021/11/20 09:31:44;;;;;;;9.53;5.93;;;11.60;99.90;;;;;;5008066;28;20196;-54
2021/11/20 09:34:12;;;;;;;12.30;6.20;;;11.60;99.90;;;;;;5017930;28;20218;-54
2021/11/20 09:36:43;;;;;;;6.70;5.50;;;11.60;99.90;;;;;;5016458;28;20325;-53
2021/11/20 09:39:21;;;;;;;7.93;5.00;;;11.60;99.90;;;;;;5020605;28;20200;-53
2021/11/20 09:42:03;;;;;;;7.97;4.63;;;11.70;99.90;;;;;;4994062;28;20203;-52
2021/11/20 09:44:41;;;;;;;10.07;5.00;;;11.70;99.90;;;;;;5028819;28;20584;-50
2021/11/20 09:47:12;;;;;;;6.30;4.50;;;11.70;99.90;;;;;;5011680;28;20227;-52
2021/11/20 09:49:45;;;;;;;7.93;5.10;;;11.70;99.90;;;;;;5016735;28;20192;-50
2021/11/20 09:52:14;;;;;;;8.30;5.00;;;11.70;99.90;;;;;;5019991;28;20208;-53
2021/11/20 09:54:44;;;;;;;9.53;5.30;;;11.70;99.90;;;;;;5017627;28;20196;-51
2021/11/20 09:57:20;;;;;;;8.20;5.03;;;11.70;99.90;;;;;;4999008;28;20232;-52
2021/11/20 09:59:50;;;;;;;8.27;5.03;;;11.80;99.90;;;;;;5018134;28;20192;-54
2021/11/20 10:02:21;;;;;;;8.20;4.60;;;11.80;99.90;;;;;;5017457;28;20239;-51
2021/11/20 10:04:54;;;;;;;10.33;4.60;;;11.80;99.90;;;;;;5019884;28;20975;-51
2021/11/20 10:07:27;;;;;;;9.00;4.93;;;11.80;99.90;;;;;;5016725;28;20307;-53
2021/11/20 10:09:58;;;;;;;6.60;5.07;;;11.80;99.90;;;;;;5017930;28;20200;-54
2021/11/20 10:12:33;;;;;;;8.37;5.23;;;11.80;99.90;;;;;;4994975;28;20212;-54
2021/11/20 10:15:03;;;;;;;5.63;5.03;;;11.80;99.90;;;;;;5019719;28;20206;-51
2021/11/20 10:17:36;;;;;;;5.43;4.93;;;11.80;99.90;;;;;;5017469;28;20228;-53
2021/11/20 10:20:18;;;;;;;9.53;4.20;;;11.80;99.90;;;;;;5024523;28;20214;-53
2021/11/20 10:22:54;;;;;;;6.13;4.57;;;11.80;99.90;;;;;;5019875;28;20965;-54
2021/11/20 10:25:36;;;;;;;7.17;4.97;;;11.80;99.90;;;;;;5020384;28;20215;-53
2021/11/20 10:28:13;;;;;;;7.83;5.37;;;11.80;99.90;;;;;;5009752;28;20734;-51
2021/11/20 10:30:49;;;;;;;6.77;5.27;;;11.80;99.90;;;;;;5023353;28;20211;-49
2021/11/20 10:33:23;;;;;;;7.03;4.43;;;11.80;99.90;;;;;;5013356;28;20867;-54
2021/11/20 10:35:52;;;;;;;6.53;5.27;;;11.80;99.90;;;;;;5019239;28;20196;-51
2021/11/20 10:38:26;;;;;;;7.03;4.60;;;11.80;99.90;;;;;;5019926;28;20317;-53
2021/11/20 10:40:58;;;;;;;6.83;4.80;;;11.80;99.90;;;;;;5019283;28;20208;-54
2021/11/20 10:43:29;;;;;;;7.97;4.63;;;11.80;99.90;;;;;;5012292;28;21027;-54
2021/11/20 10:46:08;;;;;;;6.70;5.23;;;11.80;99.90;;;;;;5010091;28;20220;-51
2021/11/20 10:48:39;;;;;;;7.47;5.57;;;11.80;99.90;;;;;;5016545;28;20207;-54
2021/11/20 10:51:39;;;;;;;7.73;5.47;;;11.80;99.90;;;;;;5019717;28;20675;-52
2021/11/20 10:54:55;;;;;;;6.90;5.40;;;11.80;99.90;;;;;;5009212;28;20711;-54
2021/11/20 10:57:37;;;;;;;7.27;4.47;;;11.80;99.90;;;;;;4993217;28;20348;-54
2021/11/20 11:00:22;;;;;;;6.63;5.17;;;11.80;99.90;;;;;;5006990;28;20200;-51
2021/11/20 11:03:28;;;;;;;10.00;6.10;;;11.80;99.90;;;;;;5018644;28;20203;-52
2021/11/20 11:06:44;;;;;;;5.73;5.13;;;11.80;99.90;;;;;;5017050;28;20311;-52
2021/11/20 11:09:34;;;;;;;6.40;5.47;;;11.70;99.90;;;;;;5016208;28;20216;-54
2021/11/20 11:12:05;;;;;;;7.37;5.93;;;11.70;99.90;;;;;;5018271;28;20661;-53
2021/11/20 11:15:11;;;;;;;7.37;5.83;;;11.70;99.90;;;;;;5008983;28;22870;-49
2021/11/20 11:17:47;;;;;;;7.20;6.00;;;11.70;99.90;;;;;;4939582;29;20245;-50
2021/11/20 11:20:24;;;;;;;12.47;5.47;;;11.70;99.90;;;;;;4928862;29;20210;-51
2021/11/20 11:22:56;;;;;;;7.20;5.83;;;11.70;99.90;;;;;;4984082;28;20208;-50
2021/11/20 11:25:26;;;;;;;9.23;6.23;;;11.70;99.90;;;;;;5020872;28;20735;-51
2021/11/20 11:28:16;;;;;;;6.93;6.23;;;11.70;99.90;;;;;;5018760;28;20228;-48
2021/11/20 11:30:49;;;;;;;6.07;5.20;;;11.70;99.90;;;;;;5009048;28;20208;-51
2021/11/20 11:33:16;;;;;;;5.50;4.97;;;11.70;99.90;;;;;;5012831;28;20200;-49
2021/11/20 11:35:45;;;;;;;8.73;5.87;;;11.70;99.90;;;;;;5018806;28;20211;-50
2021/11/20 11:38:49;;;;;;;7.00;6.30;;;11.70;99.90;;;;;;5019530;28;20224;-51
2021/11/20 11:41:23;;;;;;;6.17;5.00;;;11.70;99.90;;;;;;4979459;28;20207;-49
2021/11/20 11:44:06;;;;;;;6.03;5.50;;;11.70;99.90;;;;;;5016201;28;20218;-51
2021/11/20 11:46:47;;;;;;;8.40;5.97;;;11.70;99.90;;;;;;5004381;28;20223;-52
2021/11/20 11:49:43;;;;;;;6.60;4.90;;;11.70;99.90;;;;;;5009866;28;20223;-50
2021/11/20 11:52:38;;;;;;;5.40;4.90;;;11.70;99.90;;;;;;5014486;28;20302;-49
2021/11/20 11:55:21;;;;;;;6.20;4.90;;;11.70;99.90;;;;;;5019164;28;20233;-50
2021/11/20 11:58:07;;;;;;;7.23;5.10;;;11.70;99.90;;;;;;5015163;28;20238;-49
2021/11/20 12:00:38;;;;;;;8.50;5.73;;;11.70;99.90;;;;;;5018007;28;20207;-46
2021/11/20 12:03:13;;;;;;;9.87;5.53;;;11.70;99.90;;;;;;5002789;28;20208;-51
2021/11/20 12:05:46;;;;;;;11.50;6.53;;;11.70;99.90;;;;;;5019426;28;20223;-48
2021/11/20 12:08:32;;;;;;;6.33;5.73;;;11.70;99.90;;;;;;5013705;28;20254;-52
2021/11/20 12:11:02;;;;;;;7.13;6.30;;;11.70;99.90;;;;;;5022136;28;20684;-51
2021/11/20 12:13:37;;;;;;;9.30;6.97;;;11.70;99.90;;;;;;5017175;28;20203;-50
2021/11/20 12:16:38;;;;;;;7.80;6.53;;;11.70;99.90;;;;;;5014224;28;20221;-52
2021/11/20 12:19:08;;;;;;;6.93;6.27;;;11.70;99.90;;;;;;5006775;28;20204;-53
2021/11/20 12:21:43;;;;;;;9.17;6.60;;;11.80;99.90;;;;;;5018670;28;20301;-52
2021/11/20 12:24:19;;;;;;;9.20;6.53;;;11.70;99.90;;;;;;5015084;28;20212;-53
2021/11/20 12:26:57;;;;;;;7.73;6.97;;;11.70;99.90;;;;;;5013028;28;20710;-50
2021/11/20 12:29:58;;;;;;;7.60;6.80;;;11.70;99.90;;;;;;5016008;28;20200;-48
2021/11/20 12:32:53;;;;;;;8.53;7.03;;;11.70;99.90;;;;;;4987222;28;20200;-52
2021/11/20 12:35:32;;;;;;;10.20;7.27;;;11.70;99.90;;;;;;5005435;28;20197;-48
2021/11/20 12:38:14;;;;;;;9.33;8.30;;;11.70;99.90;;;;;;5016043;28;20219;-49
2021/11/20 12:41:00;;;;;;;9.87;7.93;;;11.70;99.90;;;;;;5015919;28;20204;-49
2021/11/20 12:44:00;;;;;;;8.70;7.73;;;11.70;99.90;;;;;;5018406;28;20203;-52
2021/11/20 12:47:19;;;;;;;9.30;7.60;;;11.70;99.90;;;;;;5014839;28;20242;-50
2021/11/20 12:50:02;;;;;;;9.20;8.30;;;11.70;99.90;;;;;;5004118;28;20211;-48
2021/11/20 12:52:33;;;;;;;10.80;8.40;;;11.70;99.90;;;;;;5018932;28;20295;-46
2021/11/20 12:55:07;;;;;;;11.37;8.63;;;11.70;99.90;;;;;;5015503;28;20290;-49
2021/11/20 12:57:43;;;;;;;13.47;9.63;;;11.70;99.90;;;;;;5020151;28;20272;-46
2021/11/20 13:00:22;;;;;;;12.07;9.80;;;11.70;99.90;;;;;;5021021;28;20202;-53
2021/11/20 13:02:55;;;;;;;11.53;9.57;;;11.70;99.90;;;;;;5017789;28;20195;-47
2021/11/20 13:05:29;;;;;;;14.20;9.63;;;11.60;99.90;;;;;;5006177;28;20224;-50
2021/11/20 13:07:58;;;;;;;10.87;9.77;;;11.60;99.90;;;;;;5020548;28;20234;-51
2021/11/20 13:10:37;;;;;;;13.07;9.20;;;11.60;99.90;;;;;;5016031;28;20944;-51